Time;durP1;ratioP1;P1;durP2;ratioP2;P2;SDS_P1;SDS_P2;PMS_P1;PMS_P2;Temp;Humidity;BMP_temperature;BMP_pressure;BME280_temperature;BME280_humidity;BME280_pressure;Samples;Min_cycle;Max_cycle;Signal;HPM_P1;HPM_P2
2022/10/14 00:00:10;;;;;;;;;;;;;;;16.96;75.66;95582.13;5050558;28;20013;-74
2022/10/14 00:02:35;;;;;;;;;;;;;;;17.00;75.64;95586.50;5053014;28;20010;-74
2022/10/14 00:05:00;;;;;;;;;;;;;;;17.02;75.86;95583.47;5058631;28;20020;-74
2022/10/14 00:07:25;;;;;;;;;;;;;;;17.02;75.81;95576.19;5071710;28;20016;-76
2022/10/14 00:09:50;;;;;;;;;;;;;;;17.02;75.81;95575.41;5072763;28;20131;-74
2022/10/14 00:12:16;;;;;;;;;;;;;;;16.99;75.67;95574.16;5072701;28;20031;-75
2022/10/14 00:14:41;;;;;;;;;;;;;;;16.97;75.63;95572.94;5056208;28;20013;-74
2022/10/14 00:17:06;;;;;;;;;;;;;;;16.92;75.10;95576.59;5084308;28;20049;-74
2022/10/14 00:19:31;;;;;;;;;;;;;;;16.92;75.48;95573.94;5052233;28;20021;-74
2022/10/14 00:21:56;;;;;;;;;;;;;;;16.93;75.82;95574.72;5051545;28;20020;-74
2022/10/14 00:24:22;;;;;;;;;;;;;;;16.94;75.72;95587.84;5051817;28;20005;-74
2022/10/14 00:26:47;;;;;;;;;;;;;;;16.96;75.73;95572.16;5052432;28;20017;-75
2022/10/14 00:29:14;;;;;;;;;;;;;;;16.98;75.70;95583.34;5051371;28;20021;-74
2022/10/14 00:31:39;;;;;;;;;;;;;;;17.00;75.88;95581.13;5084882;28;20013;-75
2022/10/14 00:34:05;;;;;;;;;;;;;;;17.00;75.66;95585.72;5085024;28;20010;-75
2022/10/14 00:36:30;;;;;;;;;;;;;;;17.01;75.65;95580.00;5051213;28;20010;-74
2022/10/14 00:38:56;;;;;;;;;;;;;;;17.03;75.65;95579.66;5050745;28;20018;-76
2022/10/14 00:41:25;;;;;;;;;;;;;;;17.01;75.44;95577.31;5052410;28;20006;-74
2022/10/14 00:43:56;;;;;;;;;;;;;;;17.02;75.77;95576.19;5051792;28;20010;-74
2022/10/14 00:46:22;;;;;;;;;;;;;;;17.05;75.53;95578.22;5052263;28;20010;-74
2022/10/14 00:48:47;;;;;;;;;;;;;;;17.06;75.55;95569.03;5050340;28;20009;-74
2022/10/14 00:51:12;;;;;;;;;;;;;;;17.04;75.55;95576.63;5052361;28;20057;-75
2022/10/14 00:53:41;;;;;;;;;;;;;;;17.04;75.19;95573.16;5052163;28;20009;-74
2022/10/14 00:56:06;;;;;;;;;;;;;;;17.01;75.10;95577.31;5052110;28;20006;-74
2022/10/14 00:58:31;;;;;;;;;;;;;;;17.00;74.99;95569.59;5049053;28;20161;-75
2022/10/14 01:00:57;;;;;;;;;;;;;;;16.97;75.13;95575.63;5046400;28;20060;-74
2022/10/14 01:03:22;;;;;;;;;;;;;;;16.94;75.27;95574.41;5051936;28;20059;-74
2022/10/14 01:06:00;;;;;;;;;;;;;;;16.92;75.18;95570.44;5051974;28;20020;-75
2022/10/14 01:08:25;;;;;;;;;;;;;;;16.89;75.30;95570.00;5049888;28;20010;-75
2022/10/14 01:11:00;;;;;;;;;;;;;;;16.83;75.22;95570.53;5049425;28;20535;-74
2022/10/14 01:13:31;;;;;;;;;;;;;;;16.81;75.24;95572.78;5051889;28;20477;-74
2022/10/14 01:16:15;;;;;;;;;;;;;;;16.76;75.32;95573.78;5051514;28;20680;-73
2022/10/14 01:18:50;;;;;;;;;;;;;;;16.62;75.21;95576.72;5083214;28;20112;-74
2022/10/14 01:21:21;;;;;;;;;;;;;;;16.14;74.33;95576.56;5051679;28;20012;-73
2022/10/14 01:23:46;;;;;;;;;;;;;;;16.30;74.55;95574.84;5049520;28;20014;-74
2022/10/14 01:26:11;;;;;;;;;;;;;;;16.27;74.58;95578.16;5051649;28;20068;-74
2022/10/14 01:28:48;;;;;;;;;;;;;;;15.90;73.30;95571.84;5051078;28;20005;-73
2022/10/14 01:31:18;;;;;;;;;;;;;;;15.35;73.54;95581.59;5046932;28;20584;-74
2022/10/14 01:33:44;;;;;;;;;;;;;;;15.66;74.47;95577.81;5063584;28;20032;-74
2022/10/14 01:36:14;;;;;;;;;;;;;;;15.73;74.92;95573.53;5046603;28;20059;-73
2022/10/14 01:39:00;;;;;;;;;;;;;;;15.91;74.79;95574.19;5049409;28;20028;-74
2022/10/14 01:41:31;;;;;;;;;;;;;;;15.79;74.37;95561.50;5050013;28;20472;-75
2022/10/14 01:44:01;;;;;;;;;;;;;;;14.92;75.24;95574.53;5050315;28;20017;-74
2022/10/14 01:46:28;;;;;;;;;;;;;;;14.99;77.34;95574.03;5052936;28;20028;-74
2022/10/14 01:48:56;;;;;;;;;;;;;;;14.80;76.50;95577.88;5070392;28;20055;-73
2022/10/14 01:51:25;;;;;;;;;;;;;;;14.39;78.15;95573.06;5071007;28;20011;-76
2022/10/14 01:53:56;;;;;;;;;;;;;;;14.61;79.05;95582.03;5070623;28;20009;-74
2022/10/14 01:56:22;;;;;;;;;;;;;;;14.11;79.39;95577.94;5070915;28;20009;-74
2022/10/14 01:58:48;;;;;;;;;;;;;;;14.00;79.90;95580.16;5058849;28;20512;-76
2022/10/14 02:01:14;;;;;;;;;;;;;;;14.24;79.53;95574.34;5049324;28;20359;-74
2022/10/14 02:03:41;;;;;;;;;;;;;;;14.57;79.43;95579.97;5049787;28;20071;-75
2022/10/14 02:06:10;;;;;;;;;;;;;;;14.40;78.09;95571.94;5051065;28;20009;-74
2022/10/14 02:08:43;;;;;;;;;;;;;;;13.96;79.40;95571.19;5056836;28;20013;-74
2022/10/14 02:11:13;;;;;;;;;;;;;;;14.32;78.33;95575.41;5067636;28;20023;-74
2022/10/14 02:13:44;;;;;;;;;;;;;;;14.45;79.04;95574.47;5050572;28;20482;-73
2022/10/14 02:16:10;;;;;;;;;;;;;;;14.20;78.82;95580.63;5049846;28;20021;-74
2022/10/14 02:18:51;;;;;;;;;;;;;;;14.45;78.22;95573.69;5050467;28;20009;-74
2022/10/14 02:21:16;;;;;;;;;;;;;;;14.49;78.04;95580.78;5048703;28;20013;-73
2022/10/14 02:24:04;;;;;;;;;;;;;;;14.50;77.99;95586.94;5049037;28;20520;-73
2022/10/14 02:26:30;;;;;;;;;;;;;;;14.86;77.89;95578.50;5044207;28;20021;-75
2022/10/14 02:28:56;;;;;;;;;;;;;;;14.38;77.96;95574.16;5048907;28;20117;-72
2022/10/14 02:31:24;;;;;;;;;;;;;;;15.00;77.53;95579.09;5048869;28;20314;-73
2022/10/14 02:33:52;;;;;;;;;;;;;;;15.11;77.41;95576.84;5048699;28;20509;-73
2022/10/14 02:36:21;;;;;;;;;;;;;;;14.90;76.76;95579.44;5050473;28;20096;-73
2022/10/14 02:38:47;;;;;;;;;;;;;;;14.65;77.56;95581.06;5048344;28;20017;-73
2022/10/14 02:41:14;;;;;;;;;;;;;;;15.04;76.36;95588.03;5048874;28;20052;-74
2022/10/14 02:43:39;;;;;;;;;;;;;;;15.20;76.70;95587.50;5048860;28;20014;-73
2022/10/14 02:46:04;;;;;;;;;;;;;;;15.00;75.93;95589.00;5049586;28;20018;-74
2022/10/14 02:48:29;;;;;;;;;;;;;;;14.79;76.29;95583.53;5049733;28;20009;-74
2022/10/14 02:50:55;;;;;;;;;;;;;;;14.95;75.34;95586.50;5049622;28;20126;-73
2022/10/14 02:53:20;;;;;;;;;;;;;;;14.71;76.20;95587.03;5048711;28;20366;-74
2022/10/14 02:55:45;;;;;;;;;;;;;;;15.11;76.97;95584.09;5050064;28;20037;-74
2022/10/14 02:58:10;;;;;;;;;;;;;;;15.14;75.70;95578.06;5049134;28;20068;-73
2022/10/14 03:00:36;;;;;;;;;;;;;;;14.97;76.30;95582.38;5048849;28;20497;-74
2022/10/14 03:03:02;;;;;;;;;;;;;;;14.88;76.80;95586.19;5049951;28;20049;-73
2022/10/14 03:05:27;;;;;;;;;;;;;;;14.96;77.15;95588.88;5050307;28;20037;-74
2022/10/14 03:07:52;;;;;;;;;;;;;;;15.32;76.72;95579.56;5049141;28;20017;-74
2022/10/14 03:10:17;;;;;;;;;;;;;;;15.39;76.57;95574.47;5047849;28;20501;-74
2022/10/14 03:12:43;;;;;;;;;;;;;;;15.54;75.87;95586.56;5049367;28;20006;-73
2022/10/14 03:15:08;;;;;;;;;;;;;;;15.43;76.30;95574.63;5035057;28;20014;-73
2022/10/14 03:17:35;;;;;;;;;;;;;;;15.62;76.41;95579.56;5048991;28;20020;-73
2022/10/14 03:20:01;;;;;;;;;;;;;;;15.79;75.49;95577.59;5049464;28;20100;-73
2022/10/14 03:22:26;;;;;;;;;;;;;;;15.64;75.95;95583.53;5049218;28;20014;-74
2022/10/14 03:24:51;;;;;;;;;;;;;;;15.53;74.40;95574.25;5049579;28;20010;-73
2022/10/14 03:27:16;;;;;;;;;;;;;;;15.72;75.62;95573.88;5048712;28;20022;-73
2022/10/14 03:29:41;;;;;;;;;;;;;;;15.92;75.96;95575.78;5049065;28;20006;-74
2022/10/14 03:32:07;;;;;;;;;;;;;;;15.97;75.08;95567.53;5084794;28;20017;-73
2022/10/14 03:34:32;;;;;;;;;;;;;;;16.05;75.00;95569.34;5052641;28;20032;-73
2022/10/14 03:36:57;;;;;;;;;;;;;;;16.00;74.77;95576.81;5053509;28;20005;-74
2022/10/14 03:39:22;;;;;;;;;;;;;;;16.09;74.87;95574.84;5051759;28;20063;-73
2022/10/14 03:41:47;;;;;;;;;;;;;;;16.19;75.17;95565.63;5053269;28;20074;-74
2022/10/14 03:44:13;;;;;;;;;;;;;;;16.31;75.66;95568.34;5052968;28;20020;-74
2022/10/14 03:46:38;;;;;;;;;;;;;;;16.35;75.23;95566.56;5053172;28;20036;-73
2022/10/14 03:49:03;;;;;;;;;;;;;;;16.40;75.39;95562.91;5053051;28;20013;-74
2022/10/14 03:51:28;;;;;;;;;;;;;;;16.45;75.30;95563.47;5053210;28;20014;-74
2022/10/14 03:53:53;;;;;;;;;;;;;;;16.50;75.31;95559.81;5052384;28;20378;-73
2022/10/14 03:56:19;;;;;;;;;;;;;;;16.27;74.80;95538.69;5051879;28;20097;-74
2022/10/14 03:58:44;;;;;;;;;;;;;;;16.53;74.81;95559.94;5052845;28;20159;-73
2022/10/14 04:01:09;;;;;;;;;;;;;;;16.55;74.94;95564.97;5052436;28;20033;-74
2022/10/14 04:03:34;;;;;;;;;;;;;;;16.56;74.84;95559.25;5051773;28;20013;-74
2022/10/14 04:05:59;;;;;;;;;;;;;;;16.57;75.13;95558.13;5051337;28;20052;-73
2022/10/14 04:08:25;;;;;;;;;;;;;;;16.59;74.92;95553.25;5052799;28;20100;-74
2022/10/14 04:10:50;;;;;;;;;;;;;;;16.62;74.84;95551.78;5052689;28;20366;-73
2022/10/14 04:13:16;;;;;;;;;;;;;;;16.62;74.75;95555.25;5051887;28;20005;-74
2022/10/14 04:15:41;;;;;;;;;;;;;;;16.61;74.37;95553.69;5050703;28;20529;-73
2022/10/14 04:18:06;;;;;;;;;;;;;;;16.63;74.68;95550.66;5052734;28;20005;-74
2022/10/14 04:20:31;;;;;;;;;;;;;;;16.61;74.68;95542.94;5052258;28;20010;-73
2022/10/14 04:22:58;;;;;;;;;;;;;;;16.61;74.60;95542.94;5052658;28;20005;-73
2022/10/14 04:25:23;;;;;;;;;;;;;;;16.60;74.66;95541.38;5083706;28;20006;-73
2022/10/14 04:27:48;;;;;;;;;;;;;;;16.60;74.63;95541.38;5052569;28;20012;-74
2022/10/14 04:30:13;;;;;;;;;;;;;;;16.62;74.32;95544.50;5050332;28;20010;-74
2022/10/14 04:32:39;;;;;;;;;;;;;;;16.64;74.56;95536.13;5052298;28;20013;-75
2022/10/14 04:35:04;;;;;;;;;;;;;;;16.64;74.63;95533.44;5051532;28;20017;-75
2022/10/14 04:37:29;;;;;;;;;;;;;;;16.64;74.28;95536.13;5052182;28;20017;-74
2022/10/14 04:39:54;;;;;;;;;;;;;;;16.63;74.27;95532.66;5051819;28;20497;-74
2022/10/14 04:42:20;;;;;;;;;;;;;;;16.64;74.32;95534.22;5050148;28;20155;-73
2022/10/14 04:44:45;;;;;;;;;;;;;;;16.61;74.13;95523.34;5051035;28;20014;-73
2022/10/14 04:47:10;;;;;;;;;;;;;;;16.59;74.17;95526.38;5051416;28;20397;-74
2022/10/14 04:49:35;;;;;;;;;;;;;;;16.59;74.07;95523.69;5051824;28;20009;-74
2022/10/14 04:52:00;;;;;;;;;;;;;;;16.59;74.11;95521.00;5083595;28;20029;-74
2022/10/14 04:54:25;;;;;;;;;;;;;;;16.60;74.27;95517.19;5051718;28;20010;-73
2022/10/14 04:56:51;;;;;;;;;;;;;;;16.59;73.95;95517.53;5051821;28;20028;-74
2022/10/14 04:59:16;;;;;;;;;;;;;;;16.58;74.13;95511.38;5050362;28;20018;-74
2022/10/14 05:01:41;;;;;;;;;;;;;;;16.59;73.83;95510.28;5050324;28;20060;-74
2022/10/14 05:04:06;;;;;;;;;;;;;;;16.60;73.86;95511.06;5050540;28;20071;-74
2022/10/14 05:06:32;;;;;;;;;;;;;;;16.65;74.09;95510.84;5050494;28;20014;-74
2022/10/14 05:08:57;;;;;;;;;;;;;;;16.61;73.83;95501.88;5049529;28;20013;-76
2022/10/14 05:11:22;;;;;;;;;;;;;;;16.62;73.70;95496.16;5051792;28;20446;-74
2022/10/14 05:13:47;;;;;;;;;;;;;;;16.65;73.78;95502.78;5050609;28;20583;-74
2022/10/14 05:16:13;;;;;;;;;;;;;;;16.68;74.08;95501.31;5051119;28;20014;-74
2022/10/14 05:18:38;;;;;;;;;;;;;;;16.71;73.60;95504.16;5048551;28;20778;-74
2022/10/14 05:21:03;;;;;;;;;;;;;;;16.73;73.79;95501.13;5051618;28;20022;-74
2022/10/14 05:23:29;;;;;;;;;;;;;;;16.73;73.58;95501.91;5050283;28;20009;-73
2022/10/14 05:25:54;;;;;;;;;;;;;;;16.67;73.30;95497.06;5051223;28;20057;-74
2022/10/14 05:28:19;;;;;;;;;;;;;;;16.62;73.74;95504.22;5051070;28;20048;-73
2022/10/14 05:30:44;;;;;;;;;;;;;;;16.56;73.65;95497.50;5050199;28;20493;-72
2022/10/14 05:33:10;;;;;;;;;;;;;;;16.58;73.40;95497.97;5051025;28;20520;-71
2022/10/14 05:35:36;;;;;;;;;;;;;;;16.60;73.65;95498.41;5080189;28;20063;-71
2022/10/14 05:38:01;;;;;;;;;;;;;;;16.66;73.42;95490.91;5049679;28;20605;-70
2022/10/14 05:40:26;;;;;;;;;;;;;;;16.70;73.34;95493.72;5048567;28;20010;-71
2022/10/14 05:42:52;;;;;;;;;;;;;;;16.73;73.62;95491.16;5049206;28;20499;-71
2022/10/14 05:45:17;;;;;;;;;;;;;;;16.76;73.67;95487.81;5049150;28;20490;-71
2022/10/14 05:47:43;;;;;;;;;;;;;;;16.76;73.33;95497.78;5050094;28;20064;-71
2022/10/14 05:50:08;;;;;;;;;;;;;;;16.79;73.21;95489.06;5050705;28;20017;-71
2022/10/14 05:52:34;;;;;;;;;;;;;;;16.83;73.25;95489.94;5083195;28;20013;-70
2022/10/14 05:54:59;;;;;;;;;;;;;;;16.83;73.17;95490.72;5048705;28;20014;-70
2022/10/14 05:57:26;;;;;;;;;;;;;;;16.86;73.37;95486.59;5050781;28;20492;-74
2022/10/14 05:59:51;;;;;;;;;;;;;;;16.87;73.09;95483.56;5049414;28;20024;-74
2022/10/14 06:02:16;;;;;;;;;;;;;;;16.91;73.03;95480.22;5049658;28;20013;-71
2022/10/14 06:04:41;;;;;;;;;;;;;;;16.97;72.86;95484.25;5050227;28;20009;-70
2022/10/14 06:07:09;;;;;;;;;;;;;;;17.03;72.92;95482.91;5049882;28;20485;-72
2022/10/14 06:09:34;;;;;;;;;;;;;;;17.02;72.68;95479.44;5049131;28;20021;-74
2022/10/14 06:11:59;;;;;;;;;;;;;;;17.07;72.84;95483.81;5050713;28;20005;-72
2022/10/14 06:14:24;;;;;;;;;;;;;;;17.14;72.75;95487.47;5049279;28;20009;-71
2022/10/14 06:16:50;;;;;;;;;;;;;;;17.20;72.79;95484.56;5047188;28;20013;-71
2022/10/14 06:19:15;;;;;;;;;;;;;;;17.28;72.52;95484.44;5082261;28;20025;-72
2022/10/14 06:21:40;;;;;;;;;;;;;;;17.34;72.79;95477.72;5083145;28;20063;-74
2022/10/14 06:24:05;;;;;;;;;;;;;;;17.41;72.41;95471.78;5050936;28;20130;-74
2022/10/14 06:26:31;;;;;;;;;;;;;;;17.46;72.14;95478.84;5050580;28;20013;-74
2022/10/14 06:28:56;;;;;;;;;;;;;;;17.49;72.05;95465.47;5048629;28;20013;-72
2022/10/14 06:31:22;;;;;;;;;;;;;;;17.51;72.03;95471.31;5047895;28;20014;-72
2022/10/14 06:33:47;;;;;;;;;;;;;;;17.57;71.80;95464.56;5050405;28;20494;-72
2022/10/14 06:36:12;;;;;;;;;;;;;;;17.65;71.78;95465.56;5082841;28;20064;-72
2022/10/14 06:38:37;;;;;;;;;;;;;;;17.77;71.89;95475.53;5050046;28;20053;-72
2022/10/14 06:41:03;;;;;;;;;;;;;;;17.85;71.51;95485.38;5060020;28;20013;-72
2022/10/14 06:43:28;;;;;;;;;;;;;;;17.92;71.64;95480.19;5069869;28;20010;-72
2022/10/14 06:45:55;;;;;;;;;;;;;;;17.98;71.46;95483.44;5070023;28;20013;-72
2022/10/14 06:48:20;;;;;;;;;;;;;;;18.04;71.42;95476.66;5068248;28;20596;-73
2022/10/14 06:50:46;;;;;;;;;;;;;;;18.07;70.88;95482.16;5048374;28;20109;-72
2022/10/14 06:53:11;;;;;;;;;;;;;;;18.14;70.90;95481.56;5049767;28;20013;-72
2022/10/14 06:55:36;;;;;;;;;;;;;;;18.14;70.64;95482.34;5048513;28;20013;-72
2022/10/14 06:58:01;;;;;;;;;;;;;;;18.14;71.14;95476.97;5046226;28;20019;-72
2022/10/14 07:00:26;;;;;;;;;;;;;;;18.17;71.14;95473.59;5049084;28;20488;-73
2022/10/14 07:02:52;;;;;;;;;;;;;;;18.14;70.68;95471.56;5049163;28;20006;-72
2022/10/14 07:05:17;;;;;;;;;;;;;;;18.11;70.66;95477.63;5049217;28;20014;-72
2022/10/14 07:07:42;;;;;;;;;;;;;;;18.18;70.89;95475.16;5050957;28;20108;-74
2022/10/14 07:10:07;;;;;;;;;;;;;;;18.22;70.91;95472.56;5048353;28;20053;-73
2022/10/14 07:12:33;;;;;;;;;;;;;;;18.27;70.68;95466.13;5041139;28;20439;-73
2022/10/14 07:14:58;;;;;;;;;;;;;;;18.25;69.32;95463.78;5060937;28;20082;-79
2022/10/14 07:17:23;;;;;;;;;;;;;;;18.28;70.22;95465.00;5053452;28;20497;-74
2022/10/14 07:19:48;;;;;;;;;;;;;;;18.32;70.62;95461.25;5051997;28;20083;-75
2022/10/14 07:22:15;;;;;;;;;;;;;;;18.39;70.74;95455.28;5052262;28;20424;-74
2022/10/14 07:24:40;;;;;;;;;;;;;;;18.45;70.48;95451.22;5052191;28;20117;-73
2022/10/14 07:27:07;;;;;;;;;;;;;;;18.45;70.82;95454.69;5053110;28;20125;-75
2022/10/14 07:29:32;;;;;;;;;;;;;;;18.42;69.93;95458.06;5051948;28;20014;-75
2022/10/14 07:31:57;;;;;;;;;;;;;;;18.36;69.75;95461.34;5053472;28;20009;-74
2022/10/14 07:34:22;;;;;;;;;;;;;;;18.35;70.50;95459.81;5053248;28;20056;-74
2022/10/14 07:36:47;;;;;;;;;;;;;;;18.36;70.62;95454.06;5053368;28;20362;-74
2022/10/14 07:39:13;;;;;;;;;;;;;;;18.40;70.84;95456.84;5052420;28;20115;-74
2022/10/14 07:41:38;;;;;;;;;;;;;;;18.45;70.87;95467.38;5053277;28;20045;-74
2022/10/14 07:44:07;;;;;;;;;;;;;;;18.23;67.64;95457.97;5053100;28;20104;-75
2022/10/14 07:46:34;;;;;;;;;;;;;;;18.38;69.87;95459.13;5053303;28;20481;-74
2022/10/14 07:49:04;;;;;;;;;;;;;;;18.42;69.93;95466.13;5052850;28;20060;-74
2022/10/14 07:51:29;;;;;;;;;;;;;;;18.42;69.36;95465.34;5051370;28;20021;-74
2022/10/14 07:53:55;;;;;;;;;;;;;;;18.46;70.01;95468.94;5053063;28;20005;-75
2022/10/14 07:56:21;;;;;;;;;;;;;;;18.46;69.13;95468.94;5051974;28;20466;-75
2022/10/14 07:58:47;;;;;;;;;;;;;;;18.52;69.96;95464.06;5051997;28;20014;-74
2022/10/14 08:01:14;;;;;;;;;;;;;;;18.54;69.92;95470.69;5051915;28;20072;-74
2022/10/14 08:03:39;;;;;;;;;;;;;;;18.51;68.92;95474.06;5051820;28;20028;-75
2022/10/14 08:06:04;;;;;;;;;;;;;;;18.51;69.20;95465.97;5051524;28;20455;-75
2022/10/14 08:08:30;;;;;;;;;;;;;;;18.50;69.09;95467.13;5051032;28;20340;-74
2022/10/14 08:11:03;;;;;;;;;;;;;;;18.49;69.22;95464.78;5051336;28;20037;-75
2022/10/14 08:13:29;;;;;;;;;;;;;;;18.51;69.75;95457.91;5052761;28;20017;-74
2022/10/14 08:15:54;;;;;;;;;;;;;;;18.53;69.86;95454.84;5052558;28;20652;-75
2022/10/14 08:18:19;;;;;;;;;;;;;;;18.52;69.23;95456.00;5050109;28;20013;-76
2022/10/14 08:20:44;;;;;;;;;;;;;;;18.51;68.52;95455.22;5050861;28;20018;-75
2022/10/14 08:23:11;;;;;;;;;;;;;;;18.37;67.35;95452.94;5052219;28;20512;-75
2022/10/14 08:25:36;;;;;;;;;;;;;;;17.83;64.85;95452.66;5052645;28;20010;-75
2022/10/14 08:28:02;;;;;;;;;;;;;;;18.23;68.14;95451.81;5051246;28;20470;-76
2022/10/14 08:30:27;;;;;;;;;;;;;;;18.41;68.84;95450.34;5051988;28;20006;-76
2022/10/14 08:32:52;;;;;;;;;;;;;;;18.55;68.58;95456.09;5051737;28;20014;-76
2022/10/14 08:35:17;;;;;;;;;;;;;;;18.64;67.88;95455.94;5051092;28;20366;-74
2022/10/14 08:37:43;;;;;;;;;;;;;;;18.52;64.55;95451.38;5052515;28;20012;-75
2022/10/14 08:40:13;;;;;;;;;;;;;;;18.61;66.44;95457.38;5051850;28;20017;-75
2022/10/14 08:42:47;;;;;;;;;;;;;;;18.62;66.64;95460.84;5052159;28;20108;-76
2022/10/14 08:45:19;;;;;;;;;;;;;;;18.61;66.72;95459.31;5049767;28;20036;-76
2022/10/14 08:47:45;;;;;;;;;;;;;;;18.55;64.67;95458.78;5052023;28;20005;-76
2022/10/14 08:50:30;;;;;;;;;;;;;;;18.41;64.47;95461.09;5050162;28;20009;-75
2022/10/14 08:53:03;;;;;;;;;;;;;;;18.40;62.43;95448.78;5050380;28;20021;-75
2022/10/14 08:55:32;;;;;;;;;;;;;;;18.43;64.60;95446.19;5052006;28;20117;-76
2022/10/14 08:58:18;;;;;;;;;;;;;;;18.61;66.41;95449.31;5062996;28;20433;-75
2022/10/14 09:00:46;;;;;;;;;;;;;;;18.75;65.24;95440.03;5031857;28;20014;-76
2022/10/14 09:03:22;;;;;;;;;;;;;;;18.87;61.62;95445.34;5032085;28;20045;-76
2022/10/14 09:05:59;;;;;;;;;;;;;;;19.20;64.88;95444.94;5030517;28;20064;-75
2022/10/14 09:08:29;;;;;;;;;;;;;;;19.47;61.07;95441.31;5037375;28;20009;-76
2022/10/14 09:10:54;;;;;;;;;;;;;;;19.71;62.96;95448.38;5049966;28;20010;-76
2022/10/14 09:13:37;;;;;;;;;;;;;;;19.99;61.81;95439.28;5051672;28;20036;-75
2022/10/14 09:16:08;;;;;;;;;;;;;;;20.35;62.19;95442.66;5050135;28;20009;-74
2022/10/14 09:18:43;;;;;;;;;;;;;;;20.58;61.86;95448.88;5049513;28;20079;-75
2022/10/14 09:21:28;;;;;;;;;;;;;;;20.86;62.63;95445.84;5050422;28;20031;-75
2022/10/14 09:24:03;;;;;;;;;;;;;;;20.60;56.39;95443.09;5051021;28;20092;-76
2022/10/14 09:26:36;;;;;;;;;;;;;;;20.75;54.47;95440.28;5051072;28;20107;-75
2022/10/14 09:29:01;;;;;;;;;;;;;;;20.59;52.12;95433.44;5051157;28;20006;-76
2022/10/14 09:31:27;;;;;;;;;;;;;;;20.76;57.38;95436.44;5051689;28;20063;-76
2022/10/14 09:33:52;;;;;;;;;;;;;;;20.89;58.12;95438.97;5051414;28;20532;-75
2022/10/14 09:36:19;;;;;;;;;;;;;;;20.95;57.15;95426.69;5051114;28;20052;-77
2022/10/14 09:38:51;;;;;;;;;;;;;;;20.99;57.95;95433.72;5049300;28;20013;-76
2022/10/14 09:41:18;;;;;;;;;;;;;;;21.07;56.41;95431.88;5051003;28;20074;-75
2022/10/14 09:44:03;;;;;;;;;;;;;;;21.15;54.05;95424.66;5049954;28;20478;-77
2022/10/14 09:46:28;;;;;;;;;;;;;;;21.13;54.00;95421.53;5039100;28;20014;-76
2022/10/14 09:48:55;;;;;;;;;;;;;;;21.19;54.17;95423.56;5049561;28;20105;-75
2022/10/14 09:51:23;;;;;;;;;;;;;;;21.29;52.51;95420.25;5049799;28;20048;-77
2022/10/14 09:54:12;;;;;;;;;;;;;;;21.42;51.16;95422.75;5049641;28;20014;-76
2022/10/14 09:56:41;;;;;;;;;;;;;;;21.50;52.19;95425.19;5050734;28;20373;-76
2022/10/14 09:59:17;;;;;;;;;;;;;;;21.53;51.20;95412.84;5049136;28;20024;-76
2022/10/14 10:01:50;;;;;;;;;;;;;;;21.51;49.42;95421.31;5049658;28;20014;-76
2022/10/14 10:04:31;;;;;;;;;;;;;;;21.52;48.79;95422.09;5049246;28;20020;-74
2022/10/14 10:06:57;;;;;;;;;;;;;;;21.48;48.49;95415.84;5050440;28;20553;-76
2022/10/14 10:09:23;;;;;;;;;;;;;;;21.56;48.86;95414.81;5048870;28;20025;-76
2022/10/14 10:11:48;;;;;;;;;;;;;;;21.62;48.57;95410.63;5050685;28;20005;-75
2022/10/14 10:14:20;;;;;;;;;;;;;;;21.66;48.45;95405.28;5050560;28;20474;-75
2022/10/14 10:16:46;;;;;;;;;;;;;;;21.42;47.43;95407.28;5049447;28;20020;-76
2022/10/14 10:19:26;;;;;;;;;;;;;;;21.61;48.56;95414.50;5048047;28;20017;-75
2022/10/14 10:21:52;;;;;;;;;;;;;;;21.61;47.45;95403.66;5049589;28;20503;-76
2022/10/14 10:24:20;;;;;;;;;;;;;;;21.56;46.46;95400.50;5048892;28;20009;-76
2022/10/14 10:26:46;;;;;;;;;;;;;;;21.71;48.30;95403.03;5049586;28;20018;-76
2022/10/14 10:29:22;;;;;;;;;;;;;;;21.79;47.34;95399.22;5048925;28;20010;-76
2022/10/14 10:32:05;;;;;;;;;;;;;;;21.94;46.93;95399.41;5049231;28;20426;-77
2022/10/14 10:34:42;;;;;;;;;;;;;;;22.13;48.19;95390.34;5049150;28;20010;-77
2022/10/14 10:37:10;;;;;;;;;;;;;;;22.23;47.05;95386.97;5050467;28;20005;-77
2022/10/14 10:39:47;;;;;;;;;;;;;;;22.26;45.78;95386.19;5049966;28;20474;-77
2022/10/14 10:42:22;;;;;;;;;;;;;;;22.27;45.09;95376.94;5048240;28;20009;-76
2022/10/14 10:45:19;;;;;;;;;;;;;;;22.17;41.27;95377.63;5049006;28;20005;-77
2022/10/14 10:48:00;;;;;;;;;;;;;;;22.21;43.59;95373.00;5015755;28;20018;-76
2022/10/14 10:50:34;;;;;;;;;;;;;;;22.35;43.97;95375.06;5049890;28;20028;-77
2022/10/14 10:53:18;;;;;;;;;;;;;;;22.31;42.27;95373.09;5048829;28;20005;-76
2022/10/14 10:56:08;;;;;;;;;;;;;;;22.63;43.17;95377.25;5049662;28;20013;-76
2022/10/14 10:58:36;;;;;;;;;;;;;;;22.78;43.19;95360.72;5049869;28;20445;-78
2022/10/14 11:01:17;;;;;;;;;;;;;;;22.97;42.99;95367.03;5048698;28;20015;-76
2022/10/14 11:03:49;;;;;;;;;;;;;;;22.89;41.64;95368.16;5050170;28;20041;-75
2022/10/14 11:12:01;;;;;;;;;;;;;;;22.56;41.32;95370.59;5048097;28;20010;-76
2022/10/14 11:12:02;;;;;;;;;;;;;;;23.47;42.44;95365.38;5050137;28;20104;-76
2022/10/14 11:14:54;;;;;;;;;;;;;;;23.42;40.62;95359.53;5045031;28;20010;-76
2022/10/14 11:17:27;;;;;;;;;;;;;;;23.32;38.48;95359.09;5028657;28;20010;-76
2022/10/14 11:20:04;;;;;;;;;;;;;;;23.44;39.36;95341.72;5029344;28;20014;-76
2022/10/14 11:22:49;;;;;;;;;;;;;;;23.40;39.02;95345.59;5039958;28;20014;-76
2022/10/14 11:25:29;;;;;;;;;;;;;;;21.88;40.84;95336.66;5048265;28;20160;-75
2022/10/14 11:27:58;;;;;;;;;;;;;;;21.29;41.87;95336.38;5061417;28;20021;-76
2022/10/14 11:30:44;;;;;;;;;;;;;;;21.71;41.52;95338.03;5029462;28;20543;-76
2022/10/14 11:33:28;;;;;;;;;;;;;;;22.13;41.09;95336.16;5028237;28;20466;-74
2022/10/14 11:35:56;;;;;;;;;;;;;;;22.44;39.72;95315.91;5033616;28;20017;-75
2022/10/14 11:38:41;;;;;;;;;;;;;;;23.28;40.29;95314.88;5047900;28;20010;-74
2022/10/14 11:41:29;;;;;;;;;;;;;;;22.84;38.90;95315.81;5029905;28;20014;-75
2022/10/14 11:43:57;;;;;;;;;;;;;;;22.89;39.51;95305.78;5028651;28;20011;-74
2022/10/14 11:46:26;;;;;;;;;;;;;;;23.81;38.65;95302.69;5044636;28;20017;-75
2022/10/14 11:48:52;;;;;;;;;;;;;;;23.76;38.70;95298.41;5027736;28;20010;-75
2022/10/14 11:51:23;;;;;;;;;;;;;;;24.79;38.96;95308.56;5049323;28;20010;-75
2022/10/14 11:53:58;;;;;;;;;;;;;;;25.29;37.15;95300.31;5051863;28;20018;-76
2022/10/14 11:56:30;;;;;;;;;;;;;;;25.75;37.26;95298.56;5051550;28;20036;-76
2022/10/14 11:59:02;;;;;;;;;;;;;;;26.03;36.60;95292.94;5051087;28;20021;-76
2022/10/14 12:01:29;;;;;;;;;;;;;;;26.29;35.40;95293.53;5048772;28;20067;-74
2022/10/14 12:04:02;;;;;;;;;;;;;;;26.47;35.29;95296.16;5031741;28;20009;-76
2022/10/14 12:06:33;;;;;;;;;;;;;;;26.63;34.59;95296.38;5031643;28;20017;-76
2022/10/14 12:09:01;;;;;;;;;;;;;;;25.12;34.58;95290.22;5047663;28;20006;-75
2022/10/14 12:11:35;;;;;;;;;;;;;;;25.80;35.48;95293.47;5032786;28;20010;-75
2022/10/14 12:14:12;;;;;;;;;;;;;;;26.07;36.33;95295.63;5069648;28;20401;-80
2022/10/14 12:16:42;;;;;;;;;;;;;;;26.42;35.58;95294.63;5051446;28;20010;-75
2022/10/14 12:19:08;;;;;;;;;;;;;;;26.64;35.22;95290.53;5051098;28;20044;-75
2022/10/14 12:21:34;;;;;;;;;;;;;;;26.87;35.21;95280.94;5051340;28;20388;-76
2022/10/14 12:23:59;;;;;;;;;;;;;;;26.83;33.79;95272.03;5052166;28;20005;-76
2022/10/14 12:26:24;;;;;;;;;;;;;;;26.73;34.82;95276.41;5050959;28;20017;-76
2022/10/14 12:28:51;;;;;;;;;;;;;;;26.73;35.12;95273.69;5052029;28;20012;-76
2022/10/14 12:31:34;;;;;;;;;;;;;;;26.83;35.22;95275.53;5051363;28;20440;-75
2022/10/14 12:34:15;;;;;;;;;;;;;;;26.82;34.92;95276.72;5050920;28;20017;-76
2022/10/14 12:36:42;;;;;;;;;;;;;;;26.63;34.87;95272.59;5050534;28;20417;-77
2022/10/14 12:39:30;;;;;;;;;;;;;;;26.58;34.87;95264.09;5050406;28;20018;-76
2022/10/14 12:42:25;;;;;;;;;;;;;;;26.42;35.18;95259.94;5051582;28;20017;-76
2022/10/14 12:45:00;;;;;;;;;;;;;;;26.42;35.36;95259.94;5046245;28;20014;-76
2022/10/14 12:47:30;;;;;;;;;;;;;;;26.37;34.72;95254.91;5050249;28;20009;-76
2022/10/14 12:49:57;;;;;;;;;;;;;;;26.19;34.73;95257.75;5049745;28;20397;-75
2022/10/14 12:52:25;;;;;;;;;;;;;;;26.04;34.86;95252.81;5051009;28;20010;-75
2022/10/14 12:54:51;;;;;;;;;;;;;;;25.73;35.27;95258.06;5051838;28;20005;-75
2022/10/14 12:57:20;;;;;;;;;;;;;;;25.65;35.76;95253.84;5050702;28;20009;-75